sensor_id;sensor_type;location;lat;lon;timestamp;temperature;humidity
33508;DHT22;25568;37.410;-122.096;2024-01-07T00:02:19;17.90;79.70
33508;DHT22;25568;37.410;-122.096;2024-01-07T00:04:52;17.90;79.70
33508;DHT22;25568;37.410;-122.096;2024-01-07T00:07:21;17.90;79.80
33508;DHT22;25568;37.410;-122.096;2024-01-07T00:09:51;17.90;79.80
33508;DHT22;25568;37.410;-122.096;2024-01-07T00:12:21;17.90;79.80
33508;DHT22;25568;37.410;-122.096;2024-01-07T00:14:55;17.90;79.80
33508;DHT22;25568;37.410;-122.096;2024-01-07T00:17:24;17.90;79.80
33508;DHT22;25568;37.410;-122.096;2024-01-07T00:19:56;17.90;79.70
33508;DHT22;25568;37.410;-122.096;2024-01-07T00:22:28;18.00;80.00
33508;DHT22;25568;37.410;-122.096;2024-01-07T00:24:56;18.00;80.00
33508;DHT22;25568;37.410;-122.096;2024-01-07T00:27:25;18.00;80.10
33508;DHT22;25568;37.410;-122.096;2024-01-07T00:29:55;18.00;80.20
33508;DHT22;25568;37.410;-122.096;2024-01-07T00:32:25;18.00;80.30
33508;DHT22;25568;37.410;-122.096;2024-01-07T00:34:56;18.00;80.40
33508;DHT22;25568;37.410;-122.096;2024-01-07T00:37:25;18.00;80.50
33508;DHT22;25568;37.410;-122.096;2024-01-07T00:39:55;18.00;80.50
33508;DHT22;25568;37.410;-122.096;2024-01-07T00:42:24;18.00;80.40
33508;DHT22;25568;37.410;-122.096;2024-01-07T00:44:55;18.00;80.40
33508;DHT22;25568;37.410;-122.096;2024-01-07T00:47:24;18.00;80.30
33508;DHT22;25568;37.410;-122.096;2024-01-07T00:49:57;18.10;80.20
33508;DHT22;25568;37.410;-122.096;2024-01-07T00:52:28;18.00;80.00
33508;DHT22;25568;37.410;-122.096;2024-01-07T00:54:57;18.00;79.90
33508;DHT22;25568;37.410;-122.096;2024-01-07T00:57:27;18.00;79.90
33508;DHT22;25568;37.410;-122.096;2024-01-07T00:59:57;18.00;79.90
33508;DHT22;25568;37.410;-122.096;2024-01-07T01:02:26;18.00;79.90
33508;DHT22;25568;37.410;-122.096;2024-01-07T01:05:02;18.00;79.80
33508;DHT22;25568;37.410;-122.096;2024-01-07T01:07:31;18.00;79.70
33508;DHT22;25568;37.410;-122.096;2024-01-07T01:10:02;18.00;79.70
33508;DHT22;25568;37.410;-122.096;2024-01-07T01:12:31;18.00;79.70
33508;DHT22;25568;37.410;-122.096;2024-01-07T01:15:00;18.00;79.70
33508;DHT22;25568;37.410;-122.096;2024-01-07T01:17:30;18.00;79.70
33508;DHT22;25568;37.410;-122.096;2024-01-07T01:20:05;18.00;79.80
33508;DHT22;25568;37.410;-122.096;2024-01-07T01:22:35;18.00;79.70
33508;DHT22;25568;37.410;-122.096;2024-01-07T01:25:09;18.00;79.80
33508;DHT22;25568;37.410;-122.096;2024-01-07T01:27:39;18.00;79.80
33508;DHT22;25568;37.410;-122.096;2024-01-07T01:30:09;18.00;79.80
33508;DHT22;25568;37.410;-122.096;2024-01-07T01:32:41;18.00;79.90
33508;DHT22;25568;37.410;-122.096;2024-01-07T01:35:14;18.00;79.90
33508;DHT22;25568;37.410;-122.096;2024-01-07T01:37:43;18.00;79.90
33508;DHT22;25568;37.410;-122.096;2024-01-07T01:40:17;18.00;79.80
33508;DHT22;25568;37.410;-122.096;2024-01-07T01:42:47;18.00;79.90
33508;DHT22;25568;37.410;-122.096;2024-01-07T01:45:17;18.10;79.90
33508;DHT22;25568;37.410;-122.096;2024-01-07T01:47:49;18.00;79.70
33508;DHT22;25568;37.410;-122.096;2024-01-07T01:50:21;18.00;79.70
33508;DHT22;25568;37.410;-122.096;2024-01-07T01:52:51;18.00;79.60
33508;DHT22;25568;37.410;-122.096;2024-01-07T01:55:24;18.00;79.50
33508;DHT22;25568;37.410;-122.096;2024-01-07T01:57:54;18.00;79.50
33508;DHT22;25568;37.410;-122.096;2024-01-07T02:00:26;18.00;79.50
33508;DHT22;25568;37.410;-122.096;2024-01-07T02:02:56;18.00;79.40
33508;DHT22;25568;37.410;-122.096;2024-01-07T02:05:30;18.00;79.50
33508;DHT22;25568;37.410;-122.096;2024-01-07T02:07:59;18.00;79.40
33508;DHT22;25568;37.410;-122.096;2024-01-07T02:10:29;18.00;79.20
33508;DHT22;25568;37.410;-122.096;2024-01-07T02:13:01;18.00;79.10
33508;DHT22;25568;37.410;-122.096;2024-01-07T02:15:31;18.00;78.90
33508;DHT22;25568;37.410;-122.096;2024-01-07T02:18:00;18.00;78.80
33508;DHT22;25568;37.410;-122.096;2024-01-07T02:20:32;18.00;78.60
33508;DHT22;25568;37.410;-122.096;2024-01-07T02:23:02;18.00;78.60
33508;DHT22;25568;37.410;-122.096;2024-01-07T02:25:38;18.00;78.60
33508;DHT22;25568;37.410;-122.096;2024-01-07T02:28:10;18.00;78.60
33508;DHT22;25568;37.410;-122.096;2024-01-07T02:30:42;18.00;78.60
33508;DHT22;25568;37.410;-122.096;2024-01-07T02:33:13;18.00;78.60
33508;DHT22;25568;37.410;-122.096;2024-01-07T02:35:43;18.00;78.70
33508;DHT22;25568;37.410;-122.096;2024-01-07T02:38:13;18.00;78.70
33508;DHT22;25568;37.410;-122.096;2024-01-07T02:40:46;17.90;78.70
33508;DHT22;25568;37.410;-122.096;2024-01-07T02:43:18;17.90;78.70
33508;DHT22;25568;37.410;-122.096;2024-01-07T02:45:47;17.90;78.80
33508;DHT22;25568;37.410;-122.096;2024-01-07T02:48:16;17.90;78.70
33508;DHT22;25568;37.410;-122.096;2024-01-07T02:50:46;17.90;78.80
33508;DHT22;25568;37.410;-122.096;2024-01-07T02:53:17;17.90;78.80
33508;DHT22;25568;37.410;-122.096;2024-01-07T02:55:49;17.90;78.70
33508;DHT22;25568;37.410;-122.096;2024-01-07T02:58:18;18.00;78.40
33508;DHT22;25568;37.410;-122.096;2024-01-07T03:00:49;18.10;78.10
33508;DHT22;25568;37.410;-122.096;2024-01-07T03:03:19;18.10;78.10
33508;DHT22;25568;37.410;-122.096;2024-01-07T03:05:49;18.10;77.90
33508;DHT22;25568;37.410;-122.096;2024-01-07T03:08:18;18.10;77.90
33508;DHT22;25568;37.410;-122.096;2024-01-07T03:10:51;18.10;77.90
33508;DHT22;25568;37.410;-122.096;2024-01-07T03:13:20;18.10;77.90
33508;DHT22;25568;37.410;-122.096;2024-01-07T03:15:51;18.10;77.50
33508;DHT22;25568;37.410;-122.096;2024-01-07T03:18:21;18.10;77.60
33508;DHT22;25568;37.410;-122.096;2024-01-07T03:20:51;18.10;77.90
33508;DHT22;25568;37.410;-122.096;2024-01-07T03:23:20;18.10;78.20
33508;DHT22;25568;37.410;-122.096;2024-01-07T03:25:53;18.00;78.20
33508;DHT22;25568;37.410;-122.096;2024-01-07T03:28:25;18.00;78.10
33508;DHT22;25568;37.410;-122.096;2024-01-07T03:30:55;18.00;78.10
33508;DHT22;25568;37.410;-122.096;2024-01-07T03:33:24;18.00;77.90
33508;DHT22;25568;37.410;-122.096;2024-01-07T03:35:53;18.00;77.90
33508;DHT22;25568;37.410;-122.096;2024-01-07T03:38:23;18.00;77.70
33508;DHT22;25568;37.410;-122.096;2024-01-07T03:40:55;18.00;77.60
33508;DHT22;25568;37.410;-122.096;2024-01-07T03:43:25;18.00;77.10
33508;DHT22;25568;37.410;-122.096;2024-01-07T03:45:55;18.00;76.80
33508;DHT22;25568;37.410;-122.096;2024-01-07T03:48:24;18.00;76.40
33508;DHT22;25568;37.410;-122.096;2024-01-07T03:50:54;18.00;76.10
33508;DHT22;25568;37.410;-122.096;2024-01-07T03:53:23;18.00;76.20
33508;DHT22;25568;37.410;-122.096;2024-01-07T03:55:56;18.00;76.40
33508;DHT22;25568;37.410;-122.096;2024-01-07T03:58:25;18.00;76.80
33508;DHT22;25568;37.410;-122.096;2024-01-07T04:00:54;18.00;77.10
33508;DHT22;25568;37.410;-122.096;2024-01-07T04:03:24;18.00;77.40
33508;DHT22;25568;37.410;-122.096;2024-01-07T04:05:53;18.00;77.40
33508;DHT22;25568;37.410;-122.096;2024-01-07T04:08:25;18.00;77.50
33508;DHT22;25568;37.410;-122.096;2024-01-07T04:10:57;18.00;77.60
33508;DHT22;25568;37.410;-122.096;2024-01-07T04:13:29;18.00;77.60
33508;DHT22;25568;37.410;-122.096;2024-01-07T04:15:58;18.00;77.50
33508;DHT22;25568;37.410;-122.096;2024-01-07T04:18:28;18.00;77.60
33508;DHT22;25568;37.410;-122.096;2024-01-07T04:20:59;18.00;77.60
33508;DHT22;25568;37.410;-122.096;2024-01-07T04:23:29;18.00;77.70
33508;DHT22;25568;37.410;-122.096;2024-01-07T04:26:00;18.00;77.70
33508;DHT22;25568;37.410;-122.096;2024-01-07T04:28:29;18.00;77.60
33508;DHT22;25568;37.410;-122.096;2024-01-07T04:30:59;18.00;77.60
33508;DHT22;25568;37.410;-122.096;2024-01-07T04:33:28;18.00;77.30
33508;DHT22;25568;37.410;-122.096;2024-01-07T04:36:37;18.00;77.10
33508;DHT22;25568;37.410;-122.096;2024-01-07T04:39:07;18.00;76.40
33508;DHT22;25568;37.410;-122.096;2024-01-07T04:41:37;18.00;75.90
33508;DHT22;25568;37.410;-122.096;2024-01-07T04:44:06;18.00;75.60
33508;DHT22;25568;37.410;-122.096;2024-01-07T04:46:38;18.00;75.20
33508;DHT22;25568;37.410;-122.096;2024-01-07T04:49:08;18.00;75.00
33508;DHT22;25568;37.410;-122.096;2024-01-07T04:51:39;18.00;74.50
33508;DHT22;25568;37.410;-122.096;2024-01-07T04:54:09;18.00;74.40
33508;DHT22;25568;37.410;-122.096;2024-01-07T04:56:38;18.00;74.00
33508;DHT22;25568;37.410;-122.096;2024-01-07T04:59:08;18.10;73.80
33508;DHT22;25568;37.410;-122.096;2024-01-07T05:01:39;18.10;73.60
33508;DHT22;25568;37.410;-122.096;2024-01-07T05:04:08;18.10;73.30
33508;DHT22;25568;37.410;-122.096;2024-01-07T05:06:39;18.10;73.10
33508;DHT22;25568;37.410;-122.096;2024-01-07T05:09:08;18.20;74.10
33508;DHT22;25568;37.410;-122.096;2024-01-07T05:11:40;18.20;73.40
33508;DHT22;25568;37.410;-122.096;2024-01-07T05:14:11;18.20;73.50
33508;DHT22;25568;37.410;-122.096;2024-01-07T05:16:41;18.30;73.60
33508;DHT22;25568;37.410;-122.096;2024-01-07T05:19:10;18.30;73.70
33508;DHT22;25568;37.410;-122.096;2024-01-07T05:21:42;18.30;73.80
33508;DHT22;25568;37.410;-122.096;2024-01-07T05:24:11;18.30;73.80
33508;DHT22;25568;37.410;-122.096;2024-01-07T05:26:41;18.30;74.00
33508;DHT22;25568;37.410;-122.096;2024-01-07T05:29:23;18.30;73.80
33508;DHT22;25568;37.410;-122.096;2024-01-07T05:31:52;18.30;73.70
33508;DHT22;25568;37.410;-122.096;2024-01-07T05:34:22;18.30;73.90
33508;DHT22;25568;37.410;-122.096;2024-01-07T05:36:53;18.30;74.10
33508;DHT22;25568;37.410;-122.096;2024-01-07T05:39:22;18.30;74.30
33508;DHT22;25568;37.410;-122.096;2024-01-07T05:41:51;18.20;74.40
33508;DHT22;25568;37.410;-122.096;2024-01-07T05:44:20;18.20;74.60
33508;DHT22;25568;37.410;-122.096;2024-01-07T05:46:49;18.20;74.60
33508;DHT22;25568;37.410;-122.096;2024-01-07T05:49:19;18.20;74.70
33508;DHT22;25568;37.410;-122.096;2024-01-07T05:51:48;18.20;74.80
33508;DHT22;25568;37.410;-122.096;2024-01-07T05:54:20;18.20;74.80
33508;DHT22;25568;37.410;-122.096;2024-01-07T05:56:50;18.10;74.80
33508;DHT22;25568;37.410;-122.096;2024-01-07T05:59:18;18.10;74.80
33508;DHT22;25568;37.410;-122.096;2024-01-07T06:01:48;18.10;74.80
33508;DHT22;25568;37.410;-122.096;2024-01-07T06:04:17;18.10;74.80
33508;DHT22;25568;37.410;-122.096;2024-01-07T06:06:46;18.10;74.80
33508;DHT22;25568;37.410;-122.096;2024-01-07T06:09:15;18.10;74.90
33508;DHT22;25568;37.410;-122.096;2024-01-07T06:11:47;18.10;75.00
33508;DHT22;25568;37.410;-122.096;2024-01-07T06:14:16;18.00;75.80
33508;DHT22;25568;37.410;-122.096;2024-01-07T06:16:45;18.00;75.00
33508;DHT22;25568;37.410;-122.096;2024-01-07T06:19:16;18.00;75.00
33508;DHT22;25568;37.410;-122.096;2024-01-07T06:21:45;18.00;75.00
33508;DHT22;25568;37.410;-122.096;2024-01-07T06:24:14;18.00;74.80
33508;DHT22;25568;37.410;-122.096;2024-01-07T06:26:46;18.00;75.60
33508;DHT22;25568;37.410;-122.096;2024-01-07T06:29:15;18.00;74.80
33508;DHT22;25568;37.410;-122.096;2024-01-07T06:31:45;18.00;75.60
33508;DHT22;25568;37.410;-122.096;2024-01-07T06:34:15;18.00;75.10
33508;DHT22;25568;37.410;-122.096;2024-01-07T06:36:44;18.00;76.20
33508;DHT22;25568;37.410;-122.096;2024-01-07T06:39:14;18.00;77.10
33508;DHT22;25568;37.410;-122.096;2024-01-07T06:41:43;18.00;77.80
33508;DHT22;25568;37.410;-122.096;2024-01-07T06:44:15;18.10;77.80
33508;DHT22;25568;37.410;-122.096;2024-01-07T06:46:45;18.10;77.20
33508;DHT22;25568;37.410;-122.096;2024-01-07T06:49:13;18.10;76.80
33508;DHT22;25568;37.410;-122.096;2024-01-07T06:51:42;18.10;76.90
33508;DHT22;25568;37.410;-122.096;2024-01-07T06:54:12;18.10;77.30
33508;DHT22;25568;37.410;-122.096;2024-01-07T06:56:41;18.10;77.30
33508;DHT22;25568;37.410;-122.096;2024-01-07T06:59:10;18.10;77.60
33508;DHT22;25568;37.410;-122.096;2024-01-07T07:01:41;18.10;77.70
33508;DHT22;25568;37.410;-122.096;2024-01-07T07:04:10;18.00;77.60
33508;DHT22;25568;37.410;-122.096;2024-01-07T07:06:43;18.00;77.60
33508;DHT22;25568;37.410;-122.096;2024-01-07T07:09:13;18.00;77.70
33508;DHT22;25568;37.410;-122.096;2024-01-07T07:11:43;18.00;77.70
33508;DHT22;25568;37.410;-122.096;2024-01-07T07:14:13;18.00;77.80
33508;DHT22;25568;37.410;-122.096;2024-01-07T07:16:44;17.90;77.70
33508;DHT22;25568;37.410;-122.096;2024-01-07T07:19:13;17.90;77.70
33508;DHT22;25568;37.410;-122.096;2024-01-07T07:21:44;17.90;77.70
33508;DHT22;25568;37.410;-122.096;2024-01-07T07:24:14;17.90;77.70
33508;DHT22;25568;37.410;-122.096;2024-01-07T07:26:43;17.90;77.70
33508;DHT22;25568;37.410;-122.096;2024-01-07T07:29:13;17.90;77.70
33508;DHT22;25568;37.410;-122.096;2024-01-07T07:31:46;17.90;78.10
33508;DHT22;25568;37.410;-122.096;2024-01-07T07:34:15;17.80;78.10
33508;DHT22;25568;37.410;-122.096;2024-01-07T07:36:44;17.80;78.10
33508;DHT22;25568;37.410;-122.096;2024-01-07T07:39:13;17.80;78.10
33508;DHT22;25568;37.410;-122.096;2024-01-07T07:41:42;17.80;78.00
33508;DHT22;25568;37.410;-122.096;2024-01-07T07:44:12;17.80;77.90
33508;DHT22;25568;37.410;-122.096;2024-01-07T07:46:41;17.80;78.10
33508;DHT22;25568;37.410;-122.096;2024-01-07T07:49:12;17.80;78.10
33508;DHT22;25568;37.410;-122.096;2024-01-07T07:51:44;17.70;78.00
33508;DHT22;25568;37.410;-122.096;2024-01-07T07:54:14;17.70;77.90
33508;DHT22;25568;37.410;-122.096;2024-01-07T07:56:44;17.70;77.90
33508;DHT22;25568;37.410;-122.096;2024-01-07T07:59:13;17.70;77.90
33508;DHT22;25568;37.410;-122.096;2024-01-07T08:01:41;17.70;78.00
33508;DHT22;25568;37.410;-122.096;2024-01-07T08:04:13;17.70;78.00
33508;DHT22;25568;37.410;-122.096;2024-01-07T08:06:42;17.70;78.10
33508;DHT22;25568;37.410;-122.096;2024-01-07T08:09:12;17.70;78.10
33508;DHT22;25568;37.410;-122.096;2024-01-07T08:11:41;17.60;78.10
33508;DHT22;25568;37.410;-122.096;2024-01-07T08:14:11;17.60;78.10
33508;DHT22;25568;37.410;-122.096;2024-01-07T08:16:40;17.60;78.10
33508;DHT22;25568;37.410;-122.096;2024-01-07T08:19:11;17.60;78.20
33508;DHT22;25568;37.410;-122.096;2024-01-07T08:21:43;17.60;78.20
33508;DHT22;25568;37.410;-122.096;2024-01-07T08:24:14;17.60;78.40
33508;DHT22;25568;37.410;-122.096;2024-01-07T08:26:43;17.60;78.40
33508;DHT22;25568;37.410;-122.096;2024-01-07T08:29:12;17.50;78.30
33508;DHT22;25568;37.410;-122.096;2024-01-07T08:31:41;17.50;78.30
33508;DHT22;25568;37.410;-122.096;2024-01-07T08:34:13;17.50;78.40
33508;DHT22;25568;37.410;-122.096;2024-01-07T08:36:42;17.50;79.20
33508;DHT22;25568;37.410;-122.096;2024-01-07T08:39:11;17.50;78.70
33508;DHT22;25568;37.410;-122.096;2024-01-07T08:41:42;17.50;78.70
33508;DHT22;25568;37.410;-122.096;2024-01-07T08:44:12;17.50;78.70
33508;DHT22;25568;37.410;-122.096;2024-01-07T08:46:42;17.50;78.70
33508;DHT22;25568;37.410;-122.096;2024-01-07T08:49:14;17.40;78.60
33508;DHT22;25568;37.410;-122.096;2024-01-07T08:51:44;17.40;78.60
33508;DHT22;25568;37.410;-122.096;2024-01-07T08:54:14;17.40;79.00
33508;DHT22;25568;37.410;-122.096;2024-01-07T08:56:46;17.40;79.10
33508;DHT22;25568;37.410;-122.096;2024-01-07T08:59:16;17.40;79.40
33508;DHT22;25568;37.410;-122.096;2024-01-07T09:01:45;17.40;79.60
33508;DHT22;25568;37.410;-122.096;2024-01-07T09:04:19;17.40;79.70
33508;DHT22;25568;37.410;-122.096;2024-01-07T09:06:48;17.40;79.90
33508;DHT22;25568;37.410;-122.096;2024-01-07T09:09:18;17.40;80.00
33508;DHT22;25568;37.410;-122.096;2024-01-07T09:11:47;17.40;80.30
33508;DHT22;25568;37.410;-122.096;2024-01-07T09:14:18;17.40;80.40
33508;DHT22;25568;37.410;-122.096;2024-01-07T09:16:47;17.40;80.50
33508;DHT22;25568;37.410;-122.096;2024-01-07T09:19:19;17.40;80.80
33508;DHT22;25568;37.410;-122.096;2024-01-07T09:21:49;17.40;80.90
33508;DHT22;25568;37.410;-122.096;2024-01-07T09:24:19;17.30;80.90
33508;DHT22;25568;37.410;-122.096;2024-01-07T09:26:49;17.40;81.10
33508;DHT22;25568;37.410;-122.096;2024-01-07T09:29:19;17.40;80.40
33508;DHT22;25568;37.410;-122.096;2024-01-07T09:31:51;17.30;80.20
33508;DHT22;25568;37.410;-122.096;2024-01-07T09:34:23;17.40;79.80
33508;DHT22;25568;37.410;-122.096;2024-01-07T09:36:53;17.50;80.00
33508;DHT22;25568;37.410;-122.096;2024-01-07T09:39:22;17.50;80.20
33508;DHT22;25568;37.410;-122.096;2024-01-07T09:41:52;17.50;79.90
33508;DHT22;25568;37.410;-122.096;2024-01-07T09:44:23;17.50;79.70
33508;DHT22;25568;37.410;-122.096;2024-01-07T09:46:55;17.60;80.30
33508;DHT22;25568;37.410;-122.096;2024-01-07T09:49:27;17.60;80.10
33508;DHT22;25568;37.410;-122.096;2024-01-07T09:52:00;17.60;80.30
33508;DHT22;25568;37.410;-122.096;2024-01-07T09:54:30;17.50;80.70
33508;DHT22;25568;37.410;-122.096;2024-01-07T09:57:01;17.50;80.80
33508;DHT22;25568;37.410;-122.096;2024-01-07T09:59:34;17.60;80.90
33508;DHT22;25568;37.410;-122.096;2024-01-07T10:02:04;17.50;80.90
33508;DHT22;25568;37.410;-122.096;2024-01-07T10:04:36;17.50;80.80
33508;DHT22;25568;37.410;-122.096;2024-01-07T10:07:06;17.50;80.80
33508;DHT22;25568;37.410;-122.096;2024-01-07T10:09:35;17.60;80.90
33508;DHT22;25568;37.410;-122.096;2024-01-07T10:12:05;17.50;81.00
33508;DHT22;25568;37.410;-122.096;2024-01-07T10:14:34;17.50;80.90
33508;DHT22;25568;37.410;-122.096;2024-01-07T10:17:14;17.50;81.30
33508;DHT22;25568;37.410;-122.096;2024-01-07T10:19:47;17.50;81.70
33508;DHT22;25568;37.410;-122.096;2024-01-07T10:22:16;17.50;81.70
33508;DHT22;25568;37.410;-122.096;2024-01-07T10:24:46;17.50;81.80
33508;DHT22;25568;37.410;-122.096;2024-01-07T10:27:16;17.50;81.70
33508;DHT22;25568;37.410;-122.096;2024-01-07T10:29:48;17.50;81.80
33508;DHT22;25568;37.410;-122.096;2024-01-07T10:32:20;17.50;81.70
33508;DHT22;25568;37.410;-122.096;2024-01-07T10:34:57;17.50;81.80
33508;DHT22;25568;37.410;-122.096;2024-01-07T10:37:30;17.50;82.00
33508;DHT22;25568;37.410;-122.096;2024-01-07T10:40:01;17.50;82.70
33508;DHT22;25568;37.410;-122.096;2024-01-07T10:42:32;17.50;82.90
33508;DHT22;25568;37.410;-122.096;2024-01-07T10:45:02;17.50;82.70
33508;DHT22;25568;37.410;-122.096;2024-01-07T10:47:31;17.50;82.50
33508;DHT22;25568;37.410;-122.096;2024-01-07T10:50:04;17.40;82.80
33508;DHT22;25568;37.410;-122.096;2024-01-07T10:52:36;17.40;82.80
33508;DHT22;25568;37.410;-122.096;2024-01-07T10:55:09;17.40;83.00
33508;DHT22;25568;37.410;-122.096;2024-01-07T10:57:44;17.40;83.30
33508;DHT22;25568;37.410;-122.096;2024-01-07T11:00:15;17.40;83.50
33508;DHT22;25568;37.410;-122.096;2024-01-07T11:02:57;17.40;83.40
33508;DHT22;25568;37.410;-122.096;2024-01-07T11:05:37;17.40;83.80
33508;DHT22;25568;37.410;-122.096;2024-01-07T11:08:15;17.30;83.60
33508;DHT22;25568;37.410;-122.096;2024-01-07T11:10:50;17.30;83.80
33508;DHT22;25568;37.410;-122.096;2024-01-07T11:13:35;17.30;84.00
33508;DHT22;25568;37.410;-122.096;2024-01-07T11:16:05;17.30;85.10
33508;DHT22;25568;37.410;-122.096;2024-01-07T11:18:40;17.30;84.30
33508;DHT22;25568;37.410;-122.096;2024-01-07T11:21:21;17.30;84.60
33508;DHT22;25568;37.410;-122.096;2024-01-07T11:23:51;17.30;84.50
33508;DHT22;25568;37.410;-122.096;2024-01-07T11:26:22;17.40;84.80
33508;DHT22;25568;37.410;-122.096;2024-01-07T11:28:52;17.50;84.10
33508;DHT22;25568;37.410;-122.096;2024-01-07T11:34:40;17.60;83.60
33508;DHT22;25568;37.410;-122.096;2024-01-07T11:37:14;17.60;84.00
33508;DHT22;25568;37.410;-122.096;2024-01-07T11:39:44;17.70;84.60
33508;DHT22;25568;37.410;-122.096;2024-01-07T11:42:14;17.70;83.80
33508;DHT22;25568;37.410;-122.096;2024-01-07T11:44:48;17.70;84.30
33508;DHT22;25568;37.410;-122.096;2024-01-07T11:47:17;17.80;84.40
33508;DHT22;25568;37.410;-122.096;2024-01-07T11:49:47;17.80;85.30
33508;DHT22;25568;37.410;-122.096;2024-01-07T11:52:21;17.80;85.30
33508;DHT22;25568;37.410;-122.096;2024-01-07T11:54:50;17.90;85.10
33508;DHT22;25568;37.410;-122.096;2024-01-07T11:57:20;17.80;84.80
33508;DHT22;25568;37.410;-122.096;2024-01-07T11:59:49;17.80;85.10
33508;DHT22;25568;37.410;-122.096;2024-01-07T12:02:20;17.80;85.20
33508;DHT22;25568;37.410;-122.096;2024-01-07T12:04:49;17.80;85.00
33508;DHT22;25568;37.410;-122.096;2024-01-07T12:07:21;17.80;85.10
33508;DHT22;25568;37.410;-122.096;2024-01-07T12:09:56;17.80;85.40
33508;DHT22;25568;37.410;-122.096;2024-01-07T12:12:26;17.80;85.60
33508;DHT22;25568;37.410;-122.096;2024-01-07T12:14:57;17.80;85.40
33508;DHT22;25568;37.410;-122.096;2024-01-07T12:17:27;17.70;85.70
33508;DHT22;25568;37.410;-122.096;2024-01-07T12:19:57;17.80;86.50
33508;DHT22;25568;37.410;-122.096;2024-01-07T12:22:30;17.80;85.40
33508;DHT22;25568;37.410;-122.096;2024-01-07T12:25:03;17.80;85.40
33508;DHT22;25568;37.410;-122.096;2024-01-07T12:27:33;17.70;85.30
33508;DHT22;25568;37.410;-122.096;2024-01-07T12:30:05;17.70;84.80
33508;DHT22;25568;37.410;-122.096;2024-01-07T12:32:37;17.70;84.60
33508;DHT22;25568;37.410;-122.096;2024-01-07T12:35:07;17.70;84.50
33508;DHT22;25568;37.410;-122.096;2024-01-07T12:37:40;17.70;84.60
33508;DHT22;25568;37.410;-122.096;2024-01-07T12:40:10;17.70;84.60
33508;DHT22;25568;37.410;-122.096;2024-01-07T12:42:40;17.70;84.60
33508;DHT22;25568;37.410;-122.096;2024-01-07T12:45:14;17.70;84.70
33508;DHT22;25568;37.410;-122.096;2024-01-07T12:47:43;17.70;85.00
33508;DHT22;25568;37.410;-122.096;2024-01-07T12:50:15;17.70;85.40
33508;DHT22;25568;37.410;-122.096;2024-01-07T12:52:47;17.70;85.90
33508;DHT22;25568;37.410;-122.096;2024-01-07T12:55:19;17.70;85.80
33508;DHT22;25568;37.410;-122.096;2024-01-07T12:57:49;17.70;85.80
33508;DHT22;25568;37.410;-122.096;2024-01-07T13:00:19;17.60;85.80
33508;DHT22;25568;37.410;-122.096;2024-01-07T13:02:50;17.60;85.80
33508;DHT22;25568;37.410;-122.096;2024-01-07T13:05:19;17.60;86.10
33508;DHT22;25568;37.410;-122.096;2024-01-07T13:07:51;17.60;86.00
33508;DHT22;25568;37.410;-122.096;2024-01-07T13:10:20;17.60;85.90
33508;DHT22;25568;37.410;-122.096;2024-01-07T13:12:50;17.60;86.20
33508;DHT22;25568;37.410;-122.096;2024-01-07T13:15:20;17.50;86.30
33508;DHT22;25568;37.410;-122.096;2024-01-07T13:17:50;17.60;86.60
33508;DHT22;25568;37.410;-122.096;2024-01-07T13:20:19;17.50;86.60
33508;DHT22;25568;37.410;-122.096;2024-01-07T13:22:53;17.50;86.60
33508;DHT22;25568;37.410;-122.096;2024-01-07T13:25:22;17.50;86.30
33508;DHT22;25568;37.410;-122.096;2024-01-07T13:27:51;17.50;86.30
33508;DHT22;25568;37.410;-122.096;2024-01-07T13:30:21;17.50;86.40
33508;DHT22;25568;37.410;-122.096;2024-01-07T13:32:50;17.50;86.10
33508;DHT22;25568;37.410;-122.096;2024-01-07T13:35:23;17.50;86.00
33508;DHT22;25568;37.410;-122.096;2024-01-07T13:37:56;17.50;85.80
33508;DHT22;25568;37.410;-122.096;2024-01-07T13:40:25;17.50;85.60
33508;DHT22;25568;37.410;-122.096;2024-01-07T13:43:02;17.50;85.50
33508;DHT22;25568;37.410;-122.096;2024-01-07T13:45:31;17.50;85.40
33508;DHT22;25568;37.410;-122.096;2024-01-07T13:48:03;17.50;85.30
33508;DHT22;25568;37.410;-122.096;2024-01-07T13:50:37;17.50;85.20
33508;DHT22;25568;37.410;-122.096;2024-01-07T13:53:09;17.50;85.10
33508;DHT22;25568;37.410;-122.096;2024-01-07T13:55:39;17.50;85.00
33508;DHT22;25568;37.410;-122.096;2024-01-07T13:58:09;17.50;85.10
33508;DHT22;25568;37.410;-122.096;2024-01-07T14:00:39;17.40;84.90
33508;DHT22;25568;37.410;-122.096;2024-01-07T14:03:09;17.40;85.80
33508;DHT22;25568;37.410;-122.096;2024-01-07T14:05:51;17.40;84.90
33508;DHT22;25568;37.410;-122.096;2024-01-07T14:08:23;17.40;84.70
33508;DHT22;25568;37.410;-122.096;2024-01-07T14:10:52;17.40;84.80
33508;DHT22;25568;37.410;-122.096;2024-01-07T14:13:21;17.40;84.60
33508;DHT22;25568;37.410;-122.096;2024-01-07T14:15:51;17.40;84.80
33508;DHT22;25568;37.410;-122.096;2024-01-07T14:18:27;17.40;84.80
33508;DHT22;25568;37.410;-122.096;2024-01-07T14:20:57;17.30;84.80
33508;DHT22;25568;37.410;-122.096;2024-01-07T14:23:28;17.40;85.00
33508;DHT22;25568;37.410;-122.096;2024-01-07T14:25:58;17.30;85.10
33508;DHT22;25568;37.410;-122.096;2024-01-07T14:28:27;17.30;85.20
33508;DHT22;25568;37.410;-122.096;2024-01-07T14:30:56;17.30;85.10
33508;DHT22;25568;37.410;-122.096;2024-01-07T14:33:27;17.30;85.10
33508;DHT22;25568;37.410;-122.096;2024-01-07T14:35:56;17.40;84.80
33508;DHT22;25568;37.410;-122.096;2024-01-07T14:38:29;17.50;84.30
33508;DHT22;25568;37.410;-122.096;2024-01-07T14:40:58;17.50;83.70
33508;DHT22;25568;37.410;-122.096;2024-01-07T14:43:28;17.50;83.30
33508;DHT22;25568;37.410;-122.096;2024-01-07T14:45:59;17.60;83.50
33508;DHT22;25568;37.410;-122.096;2024-01-07T14:48:29;17.70;82.80
33508;DHT22;25568;37.410;-122.096;2024-01-07T14:51:00;17.70;82.70
33508;DHT22;25568;37.410;-122.096;2024-01-07T14:53:31;17.80;82.70
33508;DHT22;25568;37.410;-122.096;2024-01-07T14:56:01;17.80;82.60
33508;DHT22;25568;37.410;-122.096;2024-01-07T14:58:31;17.90;82.30
33508;DHT22;25568;37.410;-122.096;2024-01-07T15:01:01;17.90;82.70
33508;DHT22;25568;37.410;-122.096;2024-01-07T15:03:30;17.90;82.50
33508;DHT22;25568;37.410;-122.096;2024-01-07T15:05:59;18.00;82.30
33508;DHT22;25568;37.410;-122.096;2024-01-07T15:08:32;17.90;82.30
33508;DHT22;25568;37.410;-122.096;2024-01-07T15:11:01;17.90;82.00
33508;DHT22;25568;37.410;-122.096;2024-01-07T15:13:31;17.90;82.50